sensor_id;sensor_type;location;lat;lon;timestamp;P1;durP1;ratioP1;P2;durP2;ratioP2
56401;SDS011;42299;35.160;26.100;2022-12-29T00:01:03;6.53;;;4.22;;
56401;SDS011;42299;35.160;26.100;2022-12-29T00:02:25;8.52;;;5.22;;
56401;SDS011;42299;35.160;26.100;2022-12-29T00:03:48;9.68;;;4.72;;
56401;SDS011;42299;35.160;26.100;2022-12-29T00:05:11;8.60;;;5.05;;
56401;SDS011;42299;35.160;26.100;2022-12-29T00:06:33;9.35;;;4.90;;
56401;SDS011;42299;35.160;26.100;2022-12-29T00:07:55;10.13;;;4.82;;
56401;SDS011;42299;35.160;26.100;2022-12-29T00:09:18;8.50;;;5.00;;
56401;SDS011;42299;35.160;26.100;2022-12-29T00:10:39;7.82;;;4.82;;
56401;SDS011;42299;35.160;26.100;2022-12-29T00:12:02;9.55;;;4.47;;
56401;SDS011;42299;35.160;26.100;2022-12-29T00:13:24;6.90;;;4.15;;
56401;SDS011;42299;35.160;26.100;2022-12-29T00:15:00;10.23;;;5.32;;
56401;SDS011;42299;35.160;26.100;2022-12-29T00:16:40;6.95;;;4.55;;
56401;SDS011;42299;35.160;26.100;2022-12-29T00:18:04;7.57;;;4.80;;
56401;SDS011;42299;35.160;26.100;2022-12-29T00:19:25;12.90;;;5.60;;
56401;SDS011;42299;35.160;26.100;2022-12-29T00:21:07;10.30;;;6.45;;
56401;SDS011;42299;35.160;26.100;2022-12-29T00:22:54;15.68;;;11.45;;
56401;SDS011;42299;35.160;26.100;2022-12-29T00:24:34;12.98;;;9.57;;
56401;SDS011;42299;35.160;26.100;2022-12-29T00:26:13;30.35;;;27.67;;
56401;SDS011;42299;35.160;26.100;2022-12-29T00:27:55;12.05;;;8.50;;
56401;SDS011;42299;35.160;26.100;2022-12-29T00:29:35;13.18;;;10.75;;
56401;SDS011;42299;35.160;26.100;2022-12-29T00:31:15;12.43;;;9.13;;
56401;SDS011;42299;35.160;26.100;2022-12-29T00:32:54;9.13;;;6.15;;
56401;SDS011;42299;35.160;26.100;2022-12-29T00:34:34;8.88;;;6.10;;
56401;SDS011;42299;35.160;26.100;2022-12-29T00:36:16;8.23;;;5.38;;
56401;SDS011;42299;35.160;26.100;2022-12-29T00:37:44;7.35;;;5.40;;
56401;SDS011;42299;35.160;26.100;2022-12-29T00:39:26;11.68;;;7.88;;
56401;SDS011;42299;35.160;26.100;2022-12-29T00:41:05;12.60;;;8.70;;
56401;SDS011;42299;35.160;26.100;2022-12-29T00:42:44;10.02;;;6.57;;
56401;SDS011;42299;35.160;26.100;2022-12-29T00:44:24;22.95;;;14.50;;
56401;SDS011;42299;35.160;26.100;2022-12-29T00:45:46;18.90;;;11.27;;
56401;SDS011;42299;35.160;26.100;2022-12-29T00:47:07;11.13;;;7.00;;
56401;SDS011;42299;35.160;26.100;2022-12-29T00:48:30;10.63;;;7.00;;
56401;SDS011;42299;35.160;26.100;2022-12-29T00:50:10;10.93;;;6.30;;
56401;SDS011;42299;35.160;26.100;2022-12-29T00:51:32;12.85;;;6.38;;
56401;SDS011;42299;35.160;26.100;2022-12-29T00:52:55;10.70;;;5.53;;
56401;SDS011;42299;35.160;26.100;2022-12-29T00:54:17;10.90;;;5.85;;
56401;SDS011;42299;35.160;26.100;2022-12-29T00:55:39;9.30;;;5.13;;
56401;SDS011;42299;35.160;26.100;2022-12-29T00:57:02;11.85;;;5.68;;
56401;SDS011;42299;35.160;26.100;2022-12-29T00:58:26;9.20;;;5.10;;
56401;SDS011;42299;35.160;26.100;2022-12-29T00:59:48;8.65;;;5.00;;
56401;SDS011;42299;35.160;26.100;2022-12-29T01:01:10;8.85;;;5.20;;
56401;SDS011;42299;35.160;26.100;2022-12-29T01:02:32;9.25;;;5.40;;
56401;SDS011;42299;35.160;26.100;2022-12-29T01:03:56;10.52;;;5.82;;
56401;SDS011;42299;35.160;26.100;2022-12-29T01:05:17;8.48;;;5.05;;
56401;SDS011;42299;35.160;26.100;2022-12-29T01:06:41;9.30;;;4.72;;
56401;SDS011;42299;35.160;26.100;2022-12-29T01:08:04;8.15;;;5.53;;
56401;SDS011;42299;35.160;26.100;2022-12-29T01:09:26;9.80;;;5.78;;
56401;SDS011;42299;35.160;26.100;2022-12-29T01:11:07;10.90;;;6.20;;
56401;SDS011;42299;35.160;26.100;2022-12-29T01:12:29;9.38;;;5.53;;
56401;SDS011;42299;35.160;26.100;2022-12-29T01:14:05;10.50;;;5.90;;
56401;SDS011;42299;35.160;26.100;2022-12-29T01:15:27;9.55;;;5.47;;
56401;SDS011;42299;35.160;26.100;2022-12-29T01:16:50;9.18;;;5.18;;
56401;SDS011;42299;35.160;26.100;2022-12-29T01:18:11;8.88;;;5.43;;
56401;SDS011;42299;35.160;26.100;2022-12-29T01:19:34;13.88;;;6.00;;
56401;SDS011;42299;35.160;26.100;2022-12-29T01:20:58;9.40;;;5.50;;
56401;SDS011;42299;35.160;26.100;2022-12-29T01:22:23;8.98;;;5.40;;
56401;SDS011;42299;35.160;26.100;2022-12-29T01:23:45;10.38;;;5.50;;
56401;SDS011;42299;35.160;26.100;2022-12-29T01:25:07;8.32;;;5.68;;
56401;SDS011;42299;35.160;26.100;2022-12-29T01:26:32;7.45;;;4.75;;
56401;SDS011;42299;35.160;26.100;2022-12-29T01:27:53;8.20;;;5.45;;
56401;SDS011;42299;35.160;26.100;2022-12-29T01:29:16;8.80;;;5.60;;
56401;SDS011;42299;35.160;26.100;2022-12-29T01:30:39;10.55;;;5.47;;
56401;SDS011;42299;35.160;26.100;2022-12-29T01:32:02;9.20;;;6.20;;
56401;SDS011;42299;35.160;26.100;2022-12-29T01:33:24;9.77;;;6.47;;
56401;SDS011;42299;35.160;26.100;2022-12-29T01:34:45;8.82;;;5.90;;
56401;SDS011;42299;35.160;26.100;2022-12-29T01:36:08;9.43;;;6.55;;
56401;SDS011;42299;35.160;26.100;2022-12-29T01:37:32;11.23;;;6.93;;
56401;SDS011;42299;35.160;26.100;2022-12-29T01:38:56;8.98;;;5.85;;
56401;SDS011;42299;35.160;26.100;2022-12-29T01:40:17;9.55;;;6.38;;
56401;SDS011;42299;35.160;26.100;2022-12-29T01:41:40;9.60;;;6.70;;
56401;SDS011;42299;35.160;26.100;2022-12-29T01:43:03;9.63;;;6.50;;
56401;SDS011;42299;35.160;26.100;2022-12-29T01:44:47;10.00;;;6.53;;
56401;SDS011;42299;35.160;26.100;2022-12-29T01:46:14;12.70;;;7.90;;
56401;SDS011;42299;35.160;26.100;2022-12-29T01:47:45;14.80;;;9.50;;
56401;SDS011;42299;35.160;26.100;2022-12-29T01:49:12;11.15;;;6.57;;
56401;SDS011;42299;35.160;26.100;2022-12-29T01:50:38;9.88;;;6.32;;
56401;SDS011;42299;35.160;26.100;2022-12-29T01:52:03;12.27;;;7.28;;
56401;SDS011;42299;35.160;26.100;2022-12-29T01:53:30;10.05;;;6.65;;
56401;SDS011;42299;35.160;26.100;2022-12-29T01:54:56;9.07;;;6.80;;
56401;SDS011;42299;35.160;26.100;2022-12-29T01:56:20;11.30;;;6.80;;
56401;SDS011;42299;35.160;26.100;2022-12-29T01:57:44;10.55;;;6.43;;
56401;SDS011;42299;35.160;26.100;2022-12-29T01:59:10;11.50;;;6.88;;
56401;SDS011;42299;35.160;26.100;2022-12-29T02:00:37;10.10;;;6.35;;
56401;SDS011;42299;35.160;26.100;2022-12-29T02:01:59;8.93;;;5.50;;
56401;SDS011;42299;35.160;26.100;2022-12-29T02:03:22;9.38;;;6.55;;
56401;SDS011;42299;35.160;26.100;2022-12-29T02:04:47;8.15;;;6.05;;
56401;SDS011;42299;35.160;26.100;2022-12-29T02:06:12;10.60;;;7.75;;
56401;SDS011;42299;35.160;26.100;2022-12-29T02:07:39;11.00;;;6.68;;
56401;SDS011;42299;35.160;26.100;2022-12-29T02:09:05;8.20;;;6.15;;
56401;SDS011;42299;35.160;26.100;2022-12-29T02:10:29;11.20;;;6.82;;
56401;SDS011;42299;35.160;26.100;2022-12-29T02:11:53;9.43;;;6.60;;
56401;SDS011;42299;35.160;26.100;2022-12-29T02:13:16;8.13;;;6.38;;
56401;SDS011;42299;35.160;26.100;2022-12-29T02:16:02;10.05;;;6.35;;
56401;SDS011;42299;35.160;26.100;2022-12-29T02:17:38;11.05;;;6.95;;
56401;SDS011;42299;35.160;26.100;2022-12-29T02:19:22;9.30;;;6.28;;
56401;SDS011;42299;35.160;26.100;2022-12-29T02:23:09;16.15;;;13.02;;
56401;SDS011;42299;35.160;26.100;2022-12-29T02:28:58;21.20;;;19.15;;
56401;SDS011;42299;35.160;26.100;2022-12-29T02:30:45;11.43;;;7.78;;
56401;SDS011;42299;35.160;26.100;2022-12-29T02:32:18;9.32;;;6.40;;
56401;SDS011;42299;35.160;26.100;2022-12-29T02:33:51;10.73;;;7.07;;
56401;SDS011;42299;35.160;26.100;2022-12-29T02:35:22;14.85;;;11.23;;
56401;SDS011;42299;35.160;26.100;2022-12-29T02:36:54;9.55;;;6.50;;
56401;SDS011;42299;35.160;26.100;2022-12-29T02:38:28;12.52;;;6.47;;
56401;SDS011;42299;35.160;26.100;2022-12-29T02:39:59;9.07;;;5.90;;
56401;SDS011;42299;35.160;26.100;2022-12-29T02:41:31;9.48;;;5.93;;
56401;SDS011;42299;35.160;26.100;2022-12-29T02:42:55;9.40;;;5.40;;
56401;SDS011;42299;35.160;26.100;2022-12-29T02:44:24;9.45;;;6.13;;
56401;SDS011;42299;35.160;26.100;2022-12-29T02:45:53;10.18;;;6.53;;
56401;SDS011;42299;35.160;26.100;2022-12-29T02:47:22;10.63;;;5.60;;
56401;SDS011;42299;35.160;26.100;2022-12-29T02:48:51;9.95;;;6.28;;
56401;SDS011;42299;35.160;26.100;2022-12-29T02:50:23;9.10;;;6.45;;
56401;SDS011;42299;35.160;26.100;2022-12-29T02:51:49;9.00;;;5.80;;
56401;SDS011;42299;35.160;26.100;2022-12-29T02:53:18;9.55;;;6.00;;
56401;SDS011;42299;35.160;26.100;2022-12-29T02:55:03;9.18;;;5.78;;
56401;SDS011;42299;35.160;26.100;2022-12-29T02:56:25;11.52;;;5.60;;
56401;SDS011;42299;35.160;26.100;2022-12-29T02:59:09;9.38;;;6.50;;
56401;SDS011;42299;35.160;26.100;2022-12-29T03:00:32;11.30;;;5.90;;
56401;SDS011;42299;35.160;26.100;2022-12-29T03:02:15;10.57;;;6.28;;
56401;SDS011;42299;35.160;26.100;2022-12-29T03:03:56;7.93;;;4.75;;
56401;SDS011;42299;35.160;26.100;2022-12-29T03:05:36;9.02;;;5.38;;
56401;SDS011;42299;35.160;26.100;2022-12-29T03:07:21;9.80;;;6.22;;
56401;SDS011;42299;35.160;26.100;2022-12-29T03:08:53;8.15;;;5.65;;
56401;SDS011;42299;35.160;26.100;2022-12-29T03:10:24;7.70;;;4.72;;
56401;SDS011;42299;35.160;26.100;2022-12-29T03:11:58;9.77;;;5.18;;
56401;SDS011;42299;35.160;26.100;2022-12-29T03:15:12;9.25;;;4.82;;
56401;SDS011;42299;35.160;26.100;2022-12-29T03:16:58;9.50;;;5.63;;
56401;SDS011;42299;35.160;26.100;2022-12-29T03:18:27;9.65;;;5.80;;
56401;SDS011;42299;35.160;26.100;2022-12-29T03:19:59;8.20;;;5.50;;
56401;SDS011;42299;35.160;26.100;2022-12-29T03:21:28;7.60;;;5.10;;
56401;SDS011;42299;35.160;26.100;2022-12-29T03:23:13;9.15;;;5.97;;
56401;SDS011;42299;35.160;26.100;2022-12-29T03:24:39;7.93;;;5.30;;
56401;SDS011;42299;35.160;26.100;2022-12-29T03:26:05;8.93;;;5.95;;
56401;SDS011;42299;35.160;26.100;2022-12-29T03:27:33;8.13;;;5.40;;
56401;SDS011;42299;35.160;26.100;2022-12-29T03:28:58;9.93;;;6.97;;
56401;SDS011;42299;35.160;26.100;2022-12-29T03:30:23;8.82;;;6.07;;
56401;SDS011;42299;35.160;26.100;2022-12-29T03:31:48;11.23;;;5.93;;
56401;SDS011;42299;35.160;26.100;2022-12-29T03:33:14;11.02;;;5.93;;
56401;SDS011;42299;35.160;26.100;2022-12-29T03:34:44;8.32;;;5.40;;
56401;SDS011;42299;35.160;26.100;2022-12-29T03:36:08;7.80;;;5.35;;
56401;SDS011;42299;35.160;26.100;2022-12-29T03:37:36;8.50;;;5.68;;
56401;SDS011;42299;35.160;26.100;2022-12-29T03:39:03;8.77;;;5.30;;
56401;SDS011;42299;35.160;26.100;2022-12-29T03:40:32;8.52;;;5.10;;
56401;SDS011;42299;35.160;26.100;2022-12-29T03:41:56;8.10;;;5.25;;
56401;SDS011;42299;35.160;26.100;2022-12-29T03:43:21;8.52;;;5.30;;
56401;SDS011;42299;35.160;26.100;2022-12-29T03:44:43;9.77;;;5.72;;
56401;SDS011;42299;35.160;26.100;2022-12-29T03:46:07;10.52;;;5.75;;
56401;SDS011;42299;35.160;26.100;2022-12-29T03:47:32;9.40;;;5.32;;
56401;SDS011;42299;35.160;26.100;2022-12-29T03:48:55;7.47;;;4.63;;
56401;SDS011;42299;35.160;26.100;2022-12-29T03:50:19;6.78;;;4.75;;
56401;SDS011;42299;35.160;26.100;2022-12-29T03:51:41;9.95;;;6.00;;
56401;SDS011;42299;35.160;26.100;2022-12-29T03:53:03;7.95;;;5.57;;
56401;SDS011;42299;35.160;26.100;2022-12-29T03:54:26;9.90;;;5.40;;
56401;SDS011;42299;35.160;26.100;2022-12-29T03:55:48;9.50;;;5.43;;
56401;SDS011;42299;35.160;26.100;2022-12-29T03:57:11;8.27;;;5.88;;
56401;SDS011;42299;35.160;26.100;2022-12-29T03:58:52;9.43;;;5.82;;
56401;SDS011;42299;35.160;26.100;2022-12-29T04:00:23;12.43;;;6.13;;
56401;SDS011;42299;35.160;26.100;2022-12-29T04:01:44;9.25;;;5.80;;
56401;SDS011;42299;35.160;26.100;2022-12-29T04:03:07;9.20;;;6.00;;
56401;SDS011;42299;35.160;26.100;2022-12-29T04:04:29;7.82;;;4.88;;
56401;SDS011;42299;35.160;26.100;2022-12-29T04:05:53;9.20;;;5.63;;
56401;SDS011;42299;35.160;26.100;2022-12-29T04:07:15;9.50;;;5.30;;
56401;SDS011;42299;35.160;26.100;2022-12-29T04:08:37;7.47;;;5.20;;
56401;SDS011;42299;35.160;26.100;2022-12-29T04:10:00;8.88;;;4.80;;
56401;SDS011;42299;35.160;26.100;2022-12-29T04:11:22;8.95;;;5.82;;
56401;SDS011;42299;35.160;26.100;2022-12-29T04:12:44;10.90;;;5.57;;
56401;SDS011;42299;35.160;26.100;2022-12-29T04:14:08;7.03;;;4.75;;
56401;SDS011;42299;35.160;26.100;2022-12-29T04:15:30;8.05;;;5.22;;
56401;SDS011;42299;35.160;26.100;2022-12-29T04:16:53;8.60;;;5.30;;
56401;SDS011;42299;35.160;26.100;2022-12-29T04:18:14;10.23;;;5.38;;
56401;SDS011;42299;35.160;26.100;2022-12-29T04:19:37;10.18;;;5.03;;
56401;SDS011;42299;35.160;26.100;2022-12-29T04:21:00;8.45;;;5.70;;
56401;SDS011;42299;35.160;26.100;2022-12-29T04:22:24;10.13;;;5.38;;
56401;SDS011;42299;35.160;26.100;2022-12-29T04:23:45;8.93;;;5.00;;
56401;SDS011;42299;35.160;26.100;2022-12-29T04:25:09;8.95;;;5.82;;
56401;SDS011;42299;35.160;26.100;2022-12-29T04:26:31;10.93;;;7.35;;
56401;SDS011;42299;35.160;26.100;2022-12-29T04:28:14;12.95;;;7.43;;
56401;SDS011;42299;35.160;26.100;2022-12-29T04:29:47;60.33;;;33.60;;
56401;SDS011;42299;35.160;26.100;2022-12-29T04:32:52;28.50;;;16.77;;
56401;SDS011;42299;35.160;26.100;2022-12-29T04:34:16;25.73;;;15.25;;
56401;SDS011;42299;35.160;26.100;2022-12-29T04:35:41;12.77;;;8.77;;
56401;SDS011;42299;35.160;26.100;2022-12-29T04:37:04;18.98;;;10.48;;
56401;SDS011;42299;35.160;26.100;2022-12-29T04:38:27;20.10;;;11.57;;
56401;SDS011;42299;35.160;26.100;2022-12-29T04:39:50;14.35;;;8.20;;
56401;SDS011;42299;35.160;26.100;2022-12-29T04:41:11;14.38;;;9.10;;
56401;SDS011;42299;35.160;26.100;2022-12-29T04:42:34;14.43;;;9.57;;
56401;SDS011;42299;35.160;26.100;2022-12-29T04:43:57;13.73;;;9.05;;
56401;SDS011;42299;35.160;26.100;2022-12-29T04:45:30;14.75;;;8.45;;
56401;SDS011;42299;35.160;26.100;2022-12-29T04:47:04;18.85;;;11.15;;
56401;SDS011;42299;35.160;26.100;2022-12-29T04:48:41;19.80;;;12.05;;
56401;SDS011;42299;35.160;26.100;2022-12-29T04:50:25;11.38;;;7.30;;
56401;SDS011;42299;35.160;26.100;2022-12-29T04:51:59;7.82;;;5.32;;
56401;SDS011;42299;35.160;26.100;2022-12-29T04:53:22;9.82;;;6.28;;
56401;SDS011;42299;35.160;26.100;2022-12-29T04:54:47;24.17;;;14.55;;
56401;SDS011;42299;35.160;26.100;2022-12-29T04:56:12;12.85;;;7.80;;
56401;SDS011;42299;35.160;26.100;2022-12-29T04:57:34;17.60;;;11.95;;
56401;SDS011;42299;35.160;26.100;2022-12-29T04:58:57;24.42;;;21.77;;
56401;SDS011;42299;35.160;26.100;2022-12-29T05:00:20;17.35;;;15.32;;
56401;SDS011;42299;35.160;26.100;2022-12-29T05:01:43;17.75;;;15.77;;
56401;SDS011;42299;35.160;26.100;2022-12-29T05:03:04;18.17;;;15.45;;
56401;SDS011;42299;35.160;26.100;2022-12-29T05:04:26;14.13;;;10.45;;
56401;SDS011;42299;35.160;26.100;2022-12-29T05:05:48;17.42;;;9.70;;
56401;SDS011;42299;35.160;26.100;2022-12-29T05:07:10;12.73;;;8.00;;
56401;SDS011;42299;35.160;26.100;2022-12-29T05:08:33;12.57;;;9.10;;
56401;SDS011;42299;35.160;26.100;2022-12-29T05:09:56;13.85;;;10.55;;
56401;SDS011;42299;35.160;26.100;2022-12-29T05:11:18;11.13;;;8.05;;
56401;SDS011;42299;35.160;26.100;2022-12-29T05:12:43;11.20;;;8.40;;
56401;SDS011;42299;35.160;26.100;2022-12-29T05:14:08;11.05;;;9.15;;
56401;SDS011;42299;35.160;26.100;2022-12-29T05:15:31;9.95;;;7.15;;
56401;SDS011;42299;35.160;26.100;2022-12-29T05:16:52;10.45;;;7.47;;
56401;SDS011;42299;35.160;26.100;2022-12-29T05:18:15;12.25;;;7.35;;
56401;SDS011;42299;35.160;26.100;2022-12-29T05:19:37;10.18;;;7.75;;
56401;SDS011;42299;35.160;26.100;2022-12-29T05:21:00;11.18;;;6.88;;
56401;SDS011;42299;35.160;26.100;2022-12-29T05:23:46;11.48;;;7.28;;
56401;SDS011;42299;35.160;26.100;2022-12-29T05:25:09;11.10;;;8.82;;
56401;SDS011;42299;35.160;26.100;2022-12-29T05:26:42;11.98;;;8.38;;
56401;SDS011;42299;35.160;26.100;2022-12-29T05:28:25;11.57;;;8.80;;
56401;SDS011;42299;35.160;26.100;2022-12-29T05:29:52;14.38;;;9.90;;
56401;SDS011;42299;35.160;26.100;2022-12-29T05:31:14;14.98;;;11.95;;
56401;SDS011;42299;35.160;26.100;2022-12-29T05:32:37;18.70;;;15.50;;
56401;SDS011;42299;35.160;26.100;2022-12-29T05:33:58;19.88;;;17.38;;
56401;SDS011;42299;35.160;26.100;2022-12-29T05:35:22;22.63;;;19.33;;
56401;SDS011;42299;35.160;26.100;2022-12-29T05:36:45;22.15;;;19.85;;
56401;SDS011;42299;35.160;26.100;2022-12-29T05:38:09;24.02;;;21.52;;
56401;SDS011;42299;35.160;26.100;2022-12-29T05:39:32;26.45;;;23.98;;
56401;SDS011;42299;35.160;26.100;2022-12-29T05:40:57;24.98;;;22.40;;
56401;SDS011;42299;35.160;26.100;2022-12-29T05:42:38;29.08;;;26.15;;
56401;SDS011;42299;35.160;26.100;2022-12-29T05:44:20;24.50;;;21.73;;
56401;SDS011;42299;35.160;26.100;2022-12-29T05:45:48;24.77;;;22.05;;
56401;SDS011;42299;35.160;26.100;2022-12-29T05:47:29;20.58;;;18.45;;
56401;SDS011;42299;35.160;26.100;2022-12-29T05:49:10;17.52;;;15.57;;
56401;SDS011;42299;35.160;26.100;2022-12-29T05:51:05;18.70;;;14.40;;
56401;SDS011;42299;35.160;26.100;2022-12-29T05:52:39;21.23;;;18.83;;
56401;SDS011;42299;35.160;26.100;2022-12-29T05:54:02;53.00;;;47.22;;
56401;SDS011;42299;35.160;26.100;2022-12-29T05:55:26;51.55;;;45.97;;
56401;SDS011;42299;35.160;26.100;2022-12-29T05:56:49;43.03;;;35.22;;
56401;SDS011;42299;35.160;26.100;2022-12-29T05:58:12;44.45;;;39.63;;
56401;SDS011;42299;35.160;26.100;2022-12-29T05:59:35;36.30;;;32.45;;
56401;SDS011;42299;35.160;26.100;2022-12-29T06:00:58;34.25;;;28.95;;
56401;SDS011;42299;35.160;26.100;2022-12-29T06:02:20;29.30;;;26.25;;
56401;SDS011;42299;35.160;26.100;2022-12-29T06:03:43;29.05;;;26.00;;
56401;SDS011;42299;35.160;26.100;2022-12-29T06:05:06;29.27;;;24.48;;
56401;SDS011;42299;35.160;26.100;2022-12-29T06:06:30;26.13;;;23.23;;
56401;SDS011;42299;35.160;26.100;2022-12-29T06:07:52;22.95;;;19.50;;
56401;SDS011;42299;35.160;26.100;2022-12-29T06:09:14;23.90;;;21.40;;
56401;SDS011;42299;35.160;26.100;2022-12-29T06:10:39;24.58;;;20.65;;
56401;SDS011;42299;35.160;26.100;2022-12-29T06:12:02;26.75;;;21.20;;
56401;SDS011;42299;35.160;26.100;2022-12-29T06:14:48;21.25;;;18.52;;
56401;SDS011;42299;35.160;26.100;2022-12-29T06:16:11;22.58;;;18.58;;
56401;SDS011;42299;35.160;26.100;2022-12-29T06:17:34;16.90;;;15.00;;
56401;SDS011;42299;35.160;26.100;2022-12-29T06:18:57;24.83;;;20.80;;
56401;SDS011;42299;35.160;26.100;2022-12-29T06:20:20;21.45;;;18.90;;
56401;SDS011;42299;35.160;26.100;2022-12-29T06:21:43;24.70;;;21.42;;
56401;SDS011;42299;35.160;26.100;2022-12-29T06:23:05;25.67;;;22.98;;
56401;SDS011;42299;35.160;26.100;2022-12-29T06:24:28;24.95;;;21.10;;
56401;SDS011;42299;35.160;26.100;2022-12-29T06:25:52;23.92;;;21.10;;
56401;SDS011;42299;35.160;26.100;2022-12-29T06:27:15;19.95;;;17.70;;
56401;SDS011;42299;35.160;26.100;2022-12-29T06:28:38;25.83;;;20.73;;
56401;SDS011;42299;35.160;26.100;2022-12-29T06:30:00;22.48;;;19.13;;
56401;SDS011;42299;35.160;26.100;2022-12-29T06:31:22;21.88;;;19.02;;
56401;SDS011;42299;35.160;26.100;2022-12-29T06:32:45;26.10;;;21.02;;
56401;SDS011;42299;35.160;26.100;2022-12-29T06:34:07;23.27;;;20.88;;
56401;SDS011;42299;35.160;26.100;2022-12-29T06:35:30;32.17;;;28.70;;
56401;SDS011;42299;35.160;26.100;2022-12-29T06:36:53;45.10;;;39.38;;
56401;SDS011;42299;35.160;26.100;2022-12-29T06:38:16;30.75;;;25.55;;
56401;SDS011;42299;35.160;26.100;2022-12-29T06:39:39;25.60;;;22.40;;
56401;SDS011;42299;35.160;26.100;2022-12-29T06:41:06;21.63;;;19.02;;
56401;SDS011;42299;35.160;26.100;2022-12-29T06:42:48;16.30;;;14.52;;
56401;SDS011;42299;35.160;26.100;2022-12-29T06:44:30;11.35;;;9.05;;
56401;SDS011;42299;35.160;26.100;2022-12-29T06:45:55;12.60;;;9.48;;
56401;SDS011;42299;35.160;26.100;2022-12-29T06:47:16;13.85;;;11.68;;
56401;SDS011;42299;35.160;26.100;2022-12-29T06:48:39;15.35;;;11.55;;
56401;SDS011;42299;35.160;26.100;2022-12-29T06:50:03;13.30;;;11.40;;
56401;SDS011;42299;35.160;26.100;2022-12-29T06:51:25;12.25;;;10.00;;
56401;SDS011;42299;35.160;26.100;2022-12-29T06:52:47;11.10;;;8.27;;
56401;SDS011;42299;35.160;26.100;2022-12-29T06:54:08;9.90;;;7.88;;
56401;SDS011;42299;35.160;26.100;2022-12-29T06:55:31;7.68;;;5.78;;
56401;SDS011;42299;35.160;26.100;2022-12-29T06:56:54;6.72;;;4.20;;
56401;SDS011;42299;35.160;26.100;2022-12-29T06:58:16;6.72;;;3.67;;
56401;SDS011;42299;35.160;26.100;2022-12-29T06:59:39;6.63;;;4.15;;
56401;SDS011;42299;35.160;26.100;2022-12-29T07:01:00;8.88;;;4.68;;
56401;SDS011;42299;35.160;26.100;2022-12-29T07:02:23;7.70;;;5.13;;
56401;SDS011;42299;35.160;26.100;2022-12-29T07:03:45;8.57;;;4.70;;
56401;SDS011;42299;35.160;26.100;2022-12-29T07:05:08;7.05;;;4.60;;
56401;SDS011;42299;35.160;26.100;2022-12-29T07:06:31;5.55;;;3.97;;
56401;SDS011;42299;35.160;26.100;2022-12-29T07:07:53;7.07;;;4.22;;
56401;SDS011;42299;35.160;26.100;2022-12-29T07:09:14;6.32;;;3.97;;
56401;SDS011;42299;35.160;26.100;2022-12-29T07:10:37;6.07;;;3.90;;
56401;SDS011;42299;35.160;26.100;2022-12-29T07:12:01;6.25;;;3.33;;
56401;SDS011;42299;35.160;26.100;2022-12-29T07:13:24;5.63;;;3.55;;
56401;SDS011;42299;35.160;26.100;2022-12-29T07:14:46;6.13;;;3.20;;
56401;SDS011;42299;35.160;26.100;2022-12-29T07:16:07;4.25;;;2.63;;
56401;SDS011;42299;35.160;26.100;2022-12-29T07:17:31;5.35;;;3.00;;
56401;SDS011;42299;35.160;26.100;2022-12-29T07:18:53;5.20;;;2.90;;
56401;SDS011;42299;35.160;26.100;2022-12-29T07:20:16;5.65;;;3.90;;
56401;SDS011;42299;35.160;26.100;2022-12-29T07:21:38;4.50;;;2.95;;
56401;SDS011;42299;35.160;26.100;2022-12-29T07:23:00;4.63;;;2.90;;
56401;SDS011;42299;35.160;26.100;2022-12-29T07:24:23;6.43;;;3.10;;
56401;SDS011;42299;35.160;26.100;2022-12-29T07:25:46;3.72;;;2.60;;
56401;SDS011;42299;35.160;26.100;2022-12-29T07:27:09;3.75;;;2.50;;
56401;SDS011;42299;35.160;26.100;2022-12-29T07:28:31;4.75;;;2.70;;
56401;SDS011;42299;35.160;26.100;2022-12-29T07:29:54;5.15;;;2.90;;
56401;SDS011;42299;35.160;26.100;2022-12-29T07:31:16;4.03;;;2.53;;
56401;SDS011;42299;35.160;26.100;2022-12-29T07:32:40;4.55;;;2.80;;
56401;SDS011;42299;35.160;26.100;2022-12-29T07:34:03;4.32;;;2.65;;
56401;SDS011;42299;35.160;26.100;2022-12-29T07:35:25;3.50;;;2.50;;
56401;SDS011;42299;35.160;26.100;2022-12-29T07:36:47;6.50;;;3.72;;
56401;SDS011;42299;35.160;26.100;2022-12-29T07:38:09;5.32;;;3.00;;
56401;SDS011;42299;35.160;26.100;2022-12-29T07:39:31;5.28;;;2.47;;
56401;SDS011;42299;35.160;26.100;2022-12-29T07:40:58;7.43;;;2.88;;
56401;SDS011;42299;35.160;26.100;2022-12-29T07:42:22;4.55;;;2.35;;
56401;SDS011;42299;35.160;26.100;2022-12-29T07:43:46;4.00;;;2.40;;
56401;SDS011;42299;35.160;26.100;2022-12-29T07:45:29;3.53;;;2.08;;
56401;SDS011;42299;35.160;26.100;2022-12-29T07:47:02;4.00;;;2.10;;
56401;SDS011;42299;35.160;26.100;2022-12-29T07:48:24;3.25;;;1.92;;
56401;SDS011;42299;35.160;26.100;2022-12-29T07:49:47;16.08;;;7.85;;
56401;SDS011;42299;35.160;26.100;2022-12-29T07:51:09;17.15;;;7.88;;
56401;SDS011;42299;35.160;26.100;2022-12-29T07:52:31;15.85;;;7.10;;
56401;SDS011;42299;35.160;26.100;2022-12-29T07:53:54;10.95;;;5.47;;
56401;SDS011;42299;35.160;26.100;2022-12-29T07:55:17;12.73;;;6.25;;
56401;SDS011;42299;35.160;26.100;2022-12-29T07:56:39;4.35;;;2.40;;
56401;SDS011;42299;35.160;26.100;2022-12-29T07:58:02;4.78;;;2.35;;
56401;SDS011;42299;35.160;26.100;2022-12-29T07:59:24;5.38;;;2.13;;
56401;SDS011;42299;35.160;26.100;2022-12-29T08:00:47;4.43;;;2.50;;
56401;SDS011;42299;35.160;26.100;2022-12-29T08:02:14;4.50;;;2.47;;
56401;SDS011;42299;35.160;26.100;2022-12-29T08:03:36;5.85;;;2.35;;
56401;SDS011;42299;35.160;26.100;2022-12-29T08:04:58;3.70;;;2.38;;
56401;SDS011;42299;35.160;26.100;2022-12-29T08:06:20;3.88;;;2.22;;
56401;SDS011;42299;35.160;26.100;2022-12-29T08:07:43;4.95;;;2.40;;
56401;SDS011;42299;35.160;26.100;2022-12-29T08:09:06;3.55;;;2.10;;
56401;SDS011;42299;35.160;26.100;2022-12-29T08:10:28;5.75;;;2.45;;
56401;SDS011;42299;35.160;26.100;2022-12-29T08:11:50;4.53;;;2.40;;
56401;SDS011;42299;35.160;26.100;2022-12-29T08:13:15;3.55;;;2.45;;
56401;SDS011;42299;35.160;26.100;2022-12-29T08:14:37;4.55;;;2.47;;
56401;SDS011;42299;35.160;26.100;2022-12-29T08:16:00;3.83;;;2.55;;
56401;SDS011;42299;35.160;26.100;2022-12-29T08:17:22;5.47;;;2.70;;
56401;SDS011;42299;35.160;26.100;2022-12-29T08:18:45;5.18;;;2.38;;
56401;SDS011;42299;35.160;26.100;2022-12-29T08:20:06;4.53;;;2.75;;
56401;SDS011;42299;35.160;26.100;2022-12-29T08:21:30;5.22;;;2.70;;
56401;SDS011;42299;35.160;26.100;2022-12-29T08:24:14;4.28;;;2.50;;
56401;SDS011;42299;35.160;26.100;2022-12-29T08:25:36;4.28;;;2.60;;
56401;SDS011;42299;35.160;26.100;2022-12-29T08:26:58;4.30;;;2.70;;
56401;SDS011;42299;35.160;26.100;2022-12-29T08:28:22;4.20;;;2.42;;
56401;SDS011;42299;35.160;26.100;2022-12-29T08:29:47;4.57;;;2.70;;
56401;SDS011;42299;35.160;26.100;2022-12-29T08:31:09;3.60;;;1.75;;
56401;SDS011;42299;35.160;26.100;2022-12-29T08:32:31;3.33;;;1.35;;
56401;SDS011;42299;35.160;26.100;2022-12-29T08:33:54;3.40;;;1.52;;
56401;SDS011;42299;35.160;26.100;2022-12-29T08:35:16;2.80;;;1.58;;
56401;SDS011;42299;35.160;26.100;2022-12-29T08:36:38;2.35;;;1.60;;
56401;SDS011;42299;35.160;26.100;2022-12-29T08:37:59;4.95;;;2.33;;
56401;SDS011;42299;35.160;26.100;2022-12-29T08:39:22;2.92;;;1.83;;
56401;SDS011;42299;35.160;26.100;2022-12-29T08:40:44;4.82;;;1.92;;
56401;SDS011;42299;35.160;26.100;2022-12-29T08:42:05;3.33;;;1.95;;
56401;SDS011;42299;35.160;26.100;2022-12-29T08:43:29;3.42;;;1.55;;